Locke, New York
Current Conditions -  °F | °C
As of 6:15 AM on Monday 22 Dec 2014 (Local Time) from KN03 Reporting Station
Overcast Overcast  
Wind Chill: 30°   Ceiling: 1700
Heat Index: 30°   Visibility: 10mi
Dew Point: 27°   Wind: 0mph
Humidity: 86%   Direction: NA
Pressure: 30.25"   Gusts: NA
Location:  42.66°N, 76.43°W
Report Text: KN03 221115Z AUTO 00000KT 10SM OVC017 M01/M03 A3025 RMK AO2
Loading
Personal Weather Stations






























Interactive Weather Map New forecast layout! Learn more

10-Day Weather Forecast

Advertisements
Track Severe Weather on mobile